createdAt,value
2024-03-16T00:00:54.409Z,9.17
2024-03-16T00:05:57.926Z,9.17
2024-03-16T00:11:01.300Z,9.15
2024-03-16T00:16:04.511Z,9.07
2024-03-16T00:21:07.658Z,9.17
2024-03-16T00:26:10.681Z,9.22
2024-03-16T00:31:14.757Z,9.15
2024-03-16T00:36:18.586Z,9.17
2024-03-16T00:41:21.626Z,9.26
2024-03-16T00:46:24.586Z,9.31
2024-03-16T00:51:29.436Z,9.34
2024-03-16T00:56:32.510Z,9.43
2024-03-16T01:01:35.877Z,9.46
2024-03-16T01:06:38.916Z,9.48
2024-03-16T01:11:41.928Z,9.53
2024-03-16T01:16:44.857Z,9.50
2024-03-16T01:21:47.787Z,9.49
2024-03-16T01:26:51.100Z,9.48
2024-03-16T01:31:54.510Z,9.54
2024-03-16T01:36:57.417Z,9.51
2024-03-16T01:42:00.520Z,9.58
2024-03-16T01:47:04.573Z,9.52
2024-03-16T01:52:07.804Z,9.54
2024-03-16T01:57:10.804Z,9.55
2024-03-16T02:02:25.154Z,9.57
2024-03-16T02:07:28.394Z,9.61
2024-03-16T02:12:31.757Z,9.61
2024-03-16T02:17:35.126Z,9.31
2024-03-16T02:22:38.601Z,9.46
2024-03-16T02:27:41.822Z,9.62
2024-03-16T02:32:45.196Z,9.66
2024-03-16T02:37:48.248Z,9.68
2024-03-16T02:42:51.320Z,9.71
2024-03-16T02:47:55.595Z,9.68
2024-03-16T02:52:58.541Z,9.67
2024-03-16T02:58:01.501Z,9.69
2024-03-16T03:03:04.575Z,9.70
2024-03-16T03:08:08.088Z,9.77
2024-03-16T03:13:11.218Z,9.80
2024-03-16T03:18:14.241Z,9.86
2024-03-16T03:23:17.335Z,9.88
2024-03-16T03:28:20.364Z,9.92
2024-03-16T03:33:23.450Z,9.98
2024-03-16T03:38:26.401Z,9.99
2024-03-16T03:43:31.712Z,9.74
2024-03-16T03:48:45.265Z,10.01
2024-03-16T03:53:48.894Z,10.06
2024-03-16T03:58:51.848Z,10.15
2024-03-16T04:03:55.038Z,10.07
2024-03-16T04:08:58.534Z,10.12
2024-03-16T04:14:02.100Z,10.10
2024-03-16T04:19:05.152Z,10.07
2024-03-16T04:24:08.942Z,10.04
2024-03-16T04:29:11.996Z,10.08
2024-03-16T04:34:15.116Z,10.09
2024-03-16T04:39:18.080Z,10.08
2024-03-16T04:44:21.256Z,10.06
2024-03-16T04:49:24.212Z,10.08
2024-03-16T04:54:27.430Z,10.09
2024-03-16T04:59:30.389Z,10.09
2024-03-16T05:04:33.590Z,10.10
2024-03-16T05:09:36.558Z,10.06
2024-03-16T05:14:39.660Z,10.04
2024-03-16T05:19:42.982Z,10.05
2024-03-16T05:24:46.080Z,10.10
2024-03-16T05:29:49.549Z,10.00
2024-03-16T05:34:52.743Z,10.16
2024-03-16T05:39:55.985Z,10.13
2024-03-16T05:45:00.789Z,10.10
2024-03-16T05:50:04.665Z,10.09
2024-03-16T05:55:08.432Z,9.85
2024-03-16T06:00:15.772Z,10.11
2024-03-16T06:05:19.399Z,10.13
2024-03-16T06:10:23.175Z,9.92
2024-03-16T06:15:26.418Z,10.12
2024-03-16T06:20:30.717Z,10.19
2024-03-16T06:25:44.330Z,10.21
2024-03-16T06:30:53.331Z,10.24
2024-03-16T06:35:57.981Z,10.22
2024-03-16T06:41:00.982Z,10.34
2024-03-16T06:46:06.698Z,10.31
2024-03-16T06:51:09.820Z,10.40
2024-03-16T06:56:14.575Z,10.44
2024-03-16T07:01:17.806Z,10.47
2024-03-16T07:06:21.134Z,10.54
2024-03-16T07:11:24.466Z,10.60
2024-03-16T07:16:27.746Z,10.56
2024-03-16T07:21:30.764Z,10.58
2024-03-16T07:26:34.022Z,10.50
2024-03-16T07:31:37.238Z,10.59
2024-03-16T07:36:40.830Z,10.53
2024-03-16T07:41:43.912Z,10.49
2024-03-16T07:46:48.068Z,10.43
2024-03-16T07:51:51.158Z,10.47
2024-03-16T07:56:54.110Z,10.40
2024-03-16T08:01:58.123Z,10.48
2024-03-16T08:07:01.067Z,10.46
2024-03-16T08:12:04.083Z,10.54
2024-03-16T08:17:08.505Z,10.59
2024-03-16T08:22:11.621Z,10.55
2024-03-16T08:27:14.990Z,10.31
2024-03-16T08:32:18.191Z,10.28
2024-03-16T08:37:21.334Z,10.30
2024-03-16T08:42:24.532Z,10.17
2024-03-16T08:47:27.697Z,10.22
2024-03-16T08:52:31.448Z,10.20
2024-03-16T08:57:35.685Z,10.22
2024-03-16T09:02:38.651Z,10.38
2024-03-16T09:07:46.870Z,10.51
2024-03-16T09:12:49.795Z,10.49
2024-03-16T09:17:53.167Z,10.46
2024-03-16T09:22:57.850Z,10.52
2024-03-16T09:28:00.876Z,10.45
2024-03-16T09:33:04.162Z,10.31
2024-03-16T09:38:08.452Z,10.13
